Time;durP1;ratioP1;P1;durP2;ratioP2;P2;SDS_P1;SDS_P2;PMS_P1;PMS_P2;Temp;Humidity;BMP_temperature;BMP_pressure;BME280_temperature;BME280_humidity;BME280_pressure;Samples;Min_cycle;Max_cycle;Signal;HPM_P1;HPM_P2
2022/04/23 00:02:11;;;;;;;;;;;;;;;26.88;34.21;92645.25;5041677;28;9200;-61
2022/04/23 00:04:39;;;;;;;;;;;;;;;26.88;34.64;92648.03;5031343;28;7000;-60
2022/04/23 00:07:16;;;;;;;;;;;;;;;26.86;34.25;92643.03;5033250;28;7254;-60
2022/04/23 00:09:43;;;;;;;;;;;;;;;26.86;33.92;92645.81;5042617;28;9021;-60
2022/04/23 00:12:09;;;;;;;;;;;;;;;26.86;33.70;92648.56;5038711;28;6972;-61
2022/04/23 00:14:37;;;;;;;;;;;;;;;26.85;34.77;92641.59;5035390;28;9273;-60
2022/04/23 00:17:15;;;;;;;;;;;;;;;26.86;34.64;92645.09;5040648;28;7666;-60
2022/04/23 00:19:55;;;;;;;;;;;;;;;26.82;34.86;92634.44;5037687;28;7108;-60
2022/04/23 00:22:35;;;;;;;;;;;;;;;26.85;34.77;92641.59;5045691;28;8975;-60
2022/04/23 00:25:22;;;;;;;;;;;;;;;26.86;34.52;92642.34;5046915;28;6984;-60
2022/04/23 00:27:48;;;;;;;;;;;;;;;26.82;34.72;92637.19;5043922;28;9118;-60
2022/04/23 00:30:29;;;;;;;;;;;;;;;26.84;34.25;92636.63;5054803;28;7258;-60
2022/04/23 00:33:09;;;;;;;;;;;;;;;26.79;34.48;92627.28;5045536;28;9540;-60
2022/04/23 00:35:48;;;;;;;;;;;;;;;26.82;34.45;92633.69;5049242;28;9222;-61
2022/04/23 00:38:16;;;;;;;;;;;;;;;26.80;33.88;92637.03;5038347;28;8978;-60
2022/04/23 00:41:02;;;;;;;;;;;;;;;26.79;34.32;92637.59;5034689;28;9018;-60
2022/04/23 00:43:33;;;;;;;;;;;;;;;26.77;33.88;92642.94;5044631;28;7669;-60
2022/04/23 00:46:03;;;;;;;;;;;;;;;26.76;34.71;92647.72;5069970;28;9347;-60
2022/04/23 00:48:30;;;;;;;;;;;;;;;26.77;34.69;92640.19;5040750;28;7523;-60
2022/04/23 00:50:59;;;;;;;;;;;;;;;26.73;34.48;92629.50;5051742;28;9130;-60
2022/04/23 00:53:27;;;;;;;;;;;;;;;26.75;34.16;92637.25;5052452;28;7208;-60
2022/04/23 00:55:56;;;;;;;;;;;;;;;26.74;34.01;92639.28;5042956;28;9204;-60
2022/04/23 00:58:24;;;;;;;;;;;;;;;26.74;34.04;92639.28;5050868;28;7115;-60
2022/04/23 01:00:50;;;;;;;;;;;;;;;26.73;34.54;92637.78;5034871;28;6971;-60
2022/04/23 01:03:23;;;;;;;;;;;;;;;26.73;33.93;92637.78;5050181;28;9418;-60
2022/04/23 01:05:55;;;;;;;;;;;;;;;26.74;33.98;92635.78;5043704;28;9192;-60
2022/04/23 01:08:50;;;;;;;;;;;;;;;26.73;33.75;92637.78;5045318;28;9432;-60
2022/04/23 01:11:28;;;;;;;;;;;;;;;26.73;34.27;92628.81;5050633;28;7914;-60
2022/04/23 01:13:56;;;;;;;;;;;;;;;26.74;34.29;92633.00;5049314;28;7157;-60
2022/04/23 01:16:38;;;;;;;;;;;;;;;26.70;33.83;92627.13;5043531;28;8334;-61
2022/04/23 01:19:23;;;;;;;;;;;;;;;26.71;34.93;92629.31;5044006;28;9001;-60
2022/04/23 01:21:49;;;;;;;;;;;;;;;26.70;34.18;92629.88;5053449;28;7496;-60
2022/04/23 01:24:30;;;;;;;;;;;;;;;26.70;34.16;92624.38;5051919;28;8738;-60
2022/04/23 01:27:14;;;;;;;;;;;;;;;26.68;34.37;92624.19;5052637;28;8822;-60
2022/04/23 01:30:10;;;;;;;;;;;;;;;26.67;34.72;92625.47;5053206;28;9241;-60
2022/04/23 01:32:39;;;;;;;;;;;;;;;26.65;34.43;92622.56;4976635;28;8949;-60
2022/04/23 01:35:36;;;;;;;;;;;;;;;26.64;33.75;92612.81;4969069;28;7893;-61
2022/04/23 01:38:17;;;;;;;;;;;;;;;26.64;34.87;92618.34;4912559;29;9063;-60
2022/04/23 01:40:54;;;;;;;;;;;;;;;26.63;34.43;92611.34;4918409;29;7307;-60
2022/04/23 01:43:28;;;;;;;;;;;;;;;26.63;34.32;92608.59;4926252;29;7459;-60
2022/04/23 01:45:58;;;;;;;;;;;;;;;26.59;34.45;92600.72;4923974;29;9070;-60
2022/04/23 01:48:54;;;;;;;;;;;;;;;26.57;34.91;92603.31;4917430;29;9562;-60
2022/04/23 01:51:25;;;;;;;;;;;;;;;26.55;34.34;92607.91;4837897;29;8672;-60
2022/04/23 01:53:53;;;;;;;;;;;;;;;26.57;33.97;92611.56;4858595;29;7059;-60
2022/04/23 01:56:21;;;;;;;;;;;;;;;26.58;34.54;92617.81;4854544;29;9316;-61
2022/04/23 01:58:47;;;;;;;;;;;;;;;26.54;34.08;92614.69;4850525;29;9638;-60
2022/04/23 02:01:13;;;;;;;;;;;;;;;26.55;34.48;92616.91;4864534;29;8695;-60
2022/04/23 02:03:40;;;;;;;;;;;;;;;26.56;34.40;92617.63;4848952;29;9454;-60
2022/04/23 02:06:09;;;;;;;;;;;;;;;26.55;34.58;92618.94;4855787;29;7028;-61
2022/04/23 02:08:50;;;;;;;;;;;;;;;26.54;34.99;92611.94;4873854;29;8773;-60
2022/04/23 02:11:19;;;;;;;;;;;;;;;26.51;34.27;92604.81;4909722;29;9096;-60
2022/04/23 02:13:46;;;;;;;;;;;;;;;26.48;35.08;92603.16;4930607;28;8916;-60
2022/04/23 02:16:14;;;;;;;;;;;;;;;26.52;34.89;92606.25;4991738;28;8922;-61
2022/04/23 02:19:03;;;;;;;;;;;;;;;26.52;34.87;92603.50;4982301;28;7239;-61
2022/04/23 02:21:42;;;;;;;;;;;;;;;26.46;33.99;92603.00;4982130;28;9144;-60
2022/04/23 02:24:32;;;;;;;;;;;;;;;26.48;34.06;92597.66;4986775;28;7215;-60
2022/04/23 02:26:58;;;;;;;;;;;;;;;26.45;34.53;92604.25;4977697;28;9061;-60
2022/04/23 02:29:42;;;;;;;;;;;;;;;26.46;34.44;92614.00;5036991;28;9236;-61
2022/04/23 02:32:21;;;;;;;;;;;;;;;26.46;34.64;92614.00;5032736;28;7318;-60
2022/04/23 02:34:56;;;;;;;;;;;;;;;26.47;34.36;92615.50;5032540;28;7235;-60
2022/04/23 02:37:35;;;;;;;;;;;;;;;26.47;34.12;92615.50;5056463;28;7068;-60
2022/04/23 02:40:05;;;;;;;;;;;;;;;26.43;33.88;92604.84;5051017;28;9179;-60
2022/04/23 02:42:36;;;;;;;;;;;;;;;26.41;34.99;92601.91;5006385;28;7101;-60
2022/04/23 02:45:02;;;;;;;;;;;;;;;26.42;34.24;92597.88;5048668;28;7158;-60
2022/04/23 02:47:56;;;;;;;;;;;;;;;26.43;34.93;92615.13;5035437;28;7061;-60
2022/04/23 02:50:37;;;;;;;;;;;;;;;26.39;34.73;92607.25;5048075;28;7003;-60
2022/04/23 02:53:05;;;;;;;;;;;;;;;26.43;34.59;92598.59;5048125;28;10246;-60
2022/04/23 02:55:35;;;;;;;;;;;;;;;26.42;34.83;92600.63;5044297;28;7152;-60
2022/04/23 02:58:12;;;;;;;;;;;;;;;26.40;33.89;92597.69;5040449;28;9382;-60
2022/04/23 03:00:40;;;;;;;;;;;;;;;26.41;34.70;92596.38;5050115;28;9509;-60
2022/04/23 03:03:08;;;;;;;;;;;;;;;26.40;34.29;92594.94;5046178;28;9024;-60
2022/04/23 03:05:35;;;;;;;;;;;;;;;26.38;34.30;92607.81;5030668;28;7195;-60
2022/04/23 03:08:02;;;;;;;;;;;;;;;26.38;34.25;92602.31;5020540;28;9175;-60
2022/04/23 03:10:32;;;;;;;;;;;;;;;26.37;34.04;92598.06;5035741;28;7373;-60
2022/04/23 03:12:58;;;;;;;;;;;;;;;26.35;34.76;92592.38;5030835;28;8793;-60
2022/04/23 03:15:26;;;;;;;;;;;;;;;26.34;34.16;92593.69;5026965;28;9037;-61
2022/04/23 03:18:13;;;;;;;;;;;;;;;26.32;34.07;92583.19;5040915;28;8471;-60
2022/04/23 03:20:43;;;;;;;;;;;;;;;26.32;34.26;92574.94;5028237;28;9865;-60
2022/04/23 03:23:29;;;;;;;;;;;;;;;26.33;34.45;92578.44;5030758;28;9100;-60
2022/04/23 03:25:57;;;;;;;;;;;;;;;26.31;34.57;92587.25;5047587;28;8745;-60
2022/04/23 03:28:23;;;;;;;;;;;;;;;26.31;35.11;92581.00;5048305;28;7804;-60
2022/04/23 03:30:49;;;;;;;;;;;;;;;26.29;34.54;92583.59;5041288;28;10016;-60
2022/04/23 03:33:17;;;;;;;;;;;;;;;26.29;34.93;92578.09;5038658;28;7004;-60
2022/04/23 03:35:44;;;;;;;;;;;;;;;26.27;34.63;92575.16;5031491;28;7005;-60
2022/04/23 03:38:10;;;;;;;;;;;;;;;26.29;34.22;92572.56;5041352;28;9118;-60
2022/04/23 03:40:53;;;;;;;;;;;;;;;26.27;34.94;92575.16;5037949;28;7204;-60
2022/04/23 03:43:35;;;;;;;;;;;;;;;26.27;34.21;92569.66;5043849;28;7021;-60
2022/04/23 03:46:02;;;;;;;;;;;;;;;26.25;34.53;92574.97;5045726;28;9143;-60
2022/04/23 03:48:28;;;;;;;;;;;;;;;26.20;34.81;92575.91;5046532;28;9794;-60
2022/04/23 03:51:04;;;;;;;;;;;;;;;26.22;34.27;92585.09;5039594;28;9069;-60
2022/04/23 03:53:30;;;;;;;;;;;;;;;26.22;34.57;92578.84;5056462;28;7007;-60
2022/04/23 03:55:58;;;;;;;;;;;;;;;26.22;34.77;92579.59;5034501;28;7478;-60
2022/04/23 03:58:25;;;;;;;;;;;;;;;26.22;34.74;92578.84;5035489;28;9263;-60
2022/04/23 04:00:51;;;;;;;;;;;;;;;26.21;34.20;92566.38;5047563;28;7259;-60
2022/04/23 04:03:17;;;;;;;;;;;;;;;26.24;33.99;92581.78;5047349;28;6990;-60
2022/04/23 04:05:43;;;;;;;;;;;;;;;26.21;34.72;92571.88;5039882;28;8082;-60
2022/04/23 04:08:20;;;;;;;;;;;;;;;26.21;34.64;92574.63;5062857;28;9298;-60
2022/04/23 04:10:48;;;;;;;;;;;;;;;26.24;34.35;92565.97;5032158;28;8987;-60
2022/04/23 04:13:16;;;;;;;;;;;;;;;26.22;34.25;92574.06;5036862;28;7449;-60
2022/04/23 04:15:49;;;;;;;;;;;;;;;26.22;34.45;92576.09;5043686;28;7170;-60
2022/04/23 04:18:15;;;;;;;;;;;;;;;26.19;34.98;92575.19;5036912;28;7525;-60
2022/04/23 04:20:42;;;;;;;;;;;;;;;26.16;34.68;92566.00;5026242;28;7251;-60
2022/04/23 04:23:08;;;;;;;;;;;;;;;26.17;34.14;92561.97;5043270;28;7319;-60
2022/04/23 04:25:35;;;;;;;;;;;;;;;26.20;34.60;92564.91;5042936;28;7110;-60
2022/04/23 04:28:02;;;;;;;;;;;;;;;26.18;34.41;92568.22;5041832;28;7485;-60
2022/04/23 04:31:46;;;;;;;;;;;;;;;26.17;34.76;92567.47;5040177;28;9158;-60
2022/04/23 04:33:14;;;;;;;;;;;;;;;26.16;34.83;92554.25;5035044;28;7448;-60
2022/04/23 04:35:40;;;;;;;;;;;;;;;26.19;34.53;92563.44;5036760;28;8222;-61
2022/04/23 04:38:09;;;;;;;;;;;;;;;26.15;34.47;92570.06;5044811;28;8929;-60
2022/04/23 04:40:35;;;;;;;;;;;;;;;26.16;34.61;92577.03;5040993;28;7220;-60
2022/04/23 04:43:04;;;;;;;;;;;;;;;26.16;34.58;92573.56;5023897;28;7236;-60
2022/04/23 04:45:33;;;;;;;;;;;;;;;26.14;35.16;92574.09;5034819;28;9299;-60
2022/04/23 04:48:00;;;;;;;;;;;;;;;26.13;34.34;92578.16;5031681;28;8627;-60
2022/04/23 04:50:27;;;;;;;;;;;;;;;26.11;34.28;92569.72;5028717;28;9091;-60
2022/04/23 04:52:53;;;;;;;;;;;;;;;26.16;34.12;92579.78;5033526;28;7446;-60
2022/04/23 04:55:19;;;;;;;;;;;;;;;26.14;34.10;92576.84;5042312;28;7045;-60
2022/04/23 04:57:44;;;;;;;;;;;;;;;26.13;33.60;92578.16;5045829;28;9127;-60
2022/04/23 05:00:11;;;;;;;;;;;;;;;26.10;34.20;92568.22;5053117;28;6983;-60
2022/04/23 05:02:43;;;;;;;;;;;;;;;26.15;34.10;92575.56;5046241;28;7451;-60
2022/04/23 05:05:44;;;;;;;;;;;;;;;26.16;34.49;92577.03;5032235;28;8834;-59
2022/04/23 05:08:10;;;;;;;;;;;;;;;26.17;33.79;92581.25;5000770;28;8277;-59
2022/04/23 05:10:45;;;;;;;;;;;;;;;26.13;34.39;92574.66;4988150;28;9175;-59
2022/04/23 05:13:11;;;;;;;;;;;;;;;26.12;33.66;92582.19;4992258;28;9036;-59
2022/04/23 05:15:39;;;;;;;;;;;;;;;26.12;33.61;92581.47;4994955;28;7224;-59
2022/04/23 05:18:05;;;;;;;;;;;;;;;26.13;33.84;92583.66;5009866;28;7127;-59
2022/04/23 05:20:31;;;;;;;;;;;;;;;26.12;33.42;92587.69;4983349;28;9102;-59
2022/04/23 05:22:57;;;;;;;;;;;;;;;26.15;33.91;92586.59;5002232;28;9059;-60
2022/04/23 05:25:23;;;;;;;;;;;;;;;26.19;34.01;92597.22;4988315;28;6893;-59
2022/04/23 05:27:49;;;;;;;;;;;;;;;26.13;33.79;92591.94;4989285;28;9266;-60
2022/04/23 05:30:17;;;;;;;;;;;;;;;26.15;33.16;92596.88;5006084;28;8624;-60
2022/04/23 05:32:43;;;;;;;;;;;;;;;26.11;33.39;92602.78;5001959;28;6992;-60
2022/04/23 05:35:12;;;;;;;;;;;;;;;26.10;33.42;92589.53;5003794;28;9361;-60
2022/04/23 05:37:38;;;;;;;;;;;;;;;26.10;33.67;92606.06;5005733;28;7261;-59
2022/04/23 05:40:09;;;;;;;;;;;;;;;26.06;33.35;92600.19;5006855;28;7362;-60
2022/04/23 05:42:35;;;;;;;;;;;;;;;26.04;33.82;92592.47;5004378;28;9145;-60
2022/04/23 05:45:04;;;;;;;;;;;;;;;26.08;33.70;92592.84;5030391;28;9041;-60
2022/04/23 05:47:31;;;;;;;;;;;;;;;26.08;33.33;92584.59;5040564;28;9543;-60
2022/04/23 05:49:57;;;;;;;;;;;;;;;26.06;34.02;92581.63;5031485;28;7047;-60
2022/04/23 05:52:23;;;;;;;;;;;;;;;26.07;34.10;92591.38;5038070;28;7052;-60
2022/04/23 05:54:52;;;;;;;;;;;;;;;26.09;33.13;92593.59;5039942;28;8963;-59
2022/04/23 05:57:18;;;;;;;;;;;;;;;26.12;33.61;92592.50;5046948;28;7984;-60
2022/04/23 05:59:44;;;;;;;;;;;;;;;26.08;33.72;92590.09;5037202;28;9223;-59
2022/04/23 06:02:13;;;;;;;;;;;;;;;26.04;33.88;92595.25;5040727;28;7153;-60
2022/04/23 06:04:52;;;;;;;;;;;;;;;26.00;34.03;92592.13;5041780;28;7274;-59
2022/04/23 06:07:27;;;;;;;;;;;;;;;26.05;33.38;92604.25;5040616;28;8223;-60
2022/04/23 06:10:08;;;;;;;;;;;;;;;26.02;33.72;92602.59;5040719;28;9141;-60
2022/04/23 06:12:42;;;;;;;;;;;;;;;26.05;33.26;92596.72;5047629;28;8043;-60
2022/04/23 06:15:11;;;;;;;;;;;;;;;26.07;32.96;92596.88;5034693;28;9077;-60
2022/04/23 06:17:52;;;;;;;;;;;;;;;26.02;33.75;92603.31;5025234;28;7323;-60
2022/04/23 06:20:25;;;;;;;;;;;;;;;26.02;33.79;92606.09;5036874;28;8824;-60
2022/04/23 06:22:51;;;;;;;;;;;;;;;26.02;33.86;92611.59;5031073;28;7245;-60
2022/04/23 06:25:20;;;;;;;;;;;;;;;26.02;33.05;92605.34;5052148;28;9042;-60
2022/04/23 06:27:47;;;;;;;;;;;;;;;26.05;33.64;92602.22;5016532;28;7640;-60
2022/04/23 06:30:19;;;;;;;;;;;;;;;26.01;33.44;92604.59;5033866;28;9667;-60
2022/04/23 06:32:55;;;;;;;;;;;;;;;26.02;34.05;92611.59;5045187;28;8350;-60
2022/04/23 06:35:22;;;;;;;;;;;;;;;26.01;33.48;92615.63;5040994;28;7198;-60
2022/04/23 06:37:54;;;;;;;;;;;;;;;26.00;33.56;92624.44;5046117;28;7241;-60
2022/04/23 06:40:35;;;;;;;;;;;;;;;25.99;33.97;92620.25;5048414;28;7293;-59
2022/04/23 06:43:05;;;;;;;;;;;;;;;25.98;33.57;92616.00;5051377;28;8847;-60
2022/04/23 06:45:31;;;;;;;;;;;;;;;25.98;33.54;92610.50;5036896;28;7415;-60
2022/04/23 06:48:04;;;;;;;;;;;;;;;26.00;33.79;92600.41;5035785;28;7176;-60
2022/04/23 06:50:32;;;;;;;;;;;;;;;25.95;33.61;92598.56;5030114;28;8166;-60
2022/04/23 06:52:59;;;;;;;;;;;;;;;25.97;34.21;92612.53;5047891;28;7253;-60
2022/04/23 06:55:26;;;;;;;;;;;;;;;25.99;33.66;92615.44;5036256;28;9280;-59
2022/04/23 06:57:54;;;;;;;;;;;;;;;26.00;33.81;92611.41;5041078;28;7385;-60
2022/04/23 07:00:22;;;;;;;;;;;;;;;26.00;33.74;92605.91;5035766;28;7379;-60
2022/04/23 07:03:05;;;;;;;;;;;;;;;25.99;33.73;92598.22;5047566;28;7627;-60
2022/04/23 07:05:33;;;;;;;;;;;;;;;25.96;33.45;92593.81;5041615;28;7147;-59
2022/04/23 07:08:08;;;;;;;;;;;;;;;25.95;33.37;92612.34;5034849;28;7712;-60
2022/04/23 07:10:36;;;;;;;;;;;;;;;25.95;33.47;92626.13;5039949;28;8780;-60
2022/04/23 07:13:13;;;;;;;;;;;;;;;25.97;33.54;92629.03;5047655;28;7039;-60
2022/04/23 07:15:46;;;;;;;;;;;;;;;25.93;33.92;92620.44;5047932;28;8806;-60
2022/04/23 07:18:12;;;;;;;;;;;;;;;25.98;33.81;92622.25;5040209;28;9416;-60
2022/04/23 07:20:41;;;;;;;;;;;;;;;26.00;33.99;92619.69;5034925;28;9190;-60
2022/04/23 07:26:14;;;;;;;;;;;;;;;26.01;33.63;92626.63;5035093;28;9584;-60
2022/04/23 07:28:40;;;;;;;;;;;;;;;26.01;33.75;92618.38;5042011;28;7182;-60
2022/04/23 07:31:32;;;;;;;;;;;;;;;25.98;33.67;92622.25;5038883;28;7648;-60
2022/04/23 07:39:31;;;;;;;;;;;;;;;25.94;34.39;92638.44;4960017;28;9170;-60
2022/04/23 07:42:06;;;;;;;;;;;;;;;25.94;34.55;92638.44;4942895;28;9340;-60
2022/04/23 07:44:41;;;;;;;;;;;;;;;25.91;34.38;92644.31;4939390;28;9151;-60
2022/04/23 07:47:20;;;;;;;;;;;;;;;25.91;34.91;92633.28;4963925;28;9512;-60
2022/04/23 07:50:01;;;;;;;;;;;;;;;25.94;34.72;92632.94;4949938;28;7870;-60
2022/04/23 07:52:28;;;;;;;;;;;;;;;25.90;34.58;92637.34;4944212;28;9093;-60
2022/04/23 07:54:54;;;;;;;;;;;;;;;25.91;34.39;92633.28;4949744;28;7328;-60
2022/04/23 07:57:23;;;;;;;;;;;;;;;25.90;34.87;92635.31;4948081;28;7195;-60
2022/04/23 07:59:50;;;;;;;;;;;;;;;25.88;34.26;92635.13;4942093;28;9344;-60
2022/04/23 08:02:39;;;;;;;;;;;;;;;25.89;34.91;92624.84;4948727;28;7179;-60
2022/04/23 08:05:12;;;;;;;;;;;;;;;25.91;34.62;92639.53;4960041;28;9106;-60
2022/04/23 08:07:44;;;;;;;;;;;;;;;25.92;34.59;92649.28;4959258;28;7334;-59
2022/04/23 08:10:11;;;;;;;;;;;;;;;25.92;34.62;92646.53;4963569;28;9171;-60
2022/04/23 08:12:42;;;;;;;;;;;;;;;25.88;35.43;92650.94;5035090;28;9499;-60
2022/04/23 08:15:22;;;;;;;;;;;;;;;25.89;35.19;92642.13;5041769;28;8679;-60
2022/04/23 08:17:48;;;;;;;;;;;;;;;25.90;35.62;92640.09;5045300;28;9066;-60
2022/04/23 08:20:15;;;;;;;;;;;;;;;25.90;35.18;92645.59;5043621;28;7339;-60
2022/04/23 08:22:45;;;;;;;;;;;;;;;25.86;35.61;92648.72;5032772;28;7198;-60
2022/04/23 08:25:18;;;;;;;;;;;;;;;25.90;35.06;92653.88;5046307;28;9043;-59
2022/04/23 08:30:34;;;;;;;;;;;;;;;25.88;35.07;92645.44;5040426;28;7131;-60
2022/04/23 08:30:44;;;;;;;;;;;;;;;25.86;35.87;92650.75;5037644;28;7086;-60
2022/04/23 08:33:14;;;;;;;;;;;;;;;25.85;35.76;92650.03;5040388;28;9103;-60
2022/04/23 08:35:43;;;;;;;;;;;;;;;25.83;34.96;92649.84;5044965;28;9330;-59
2022/04/23 08:38:11;;;;;;;;;;;;;;;25.80;35.89;92645.44;5044886;28;8700;-60
2022/04/23 08:40:41;;;;;;;;;;;;;;;25.82;38.24;92648.38;5046777;28;7334;-60
2022/04/23 08:43:14;;;;;;;;;;;;;;;25.88;36.63;92657.16;5035690;28;8023;-60
2022/04/23 08:45:49;;;;;;;;;;;;;;;25.89;37.32;92653.13;5038875;28;9517;-59
2022/04/23 08:48:38;;;;;;;;;;;;;;;25.91;35.96;92647.06;5037530;28;9366;-59
2022/04/23 08:51:26;;;;;;;;;;;;;;;25.93;36.48;92653.47;5037688;28;7050;-60
2022/04/23 08:53:56;;;;;;;;;;;;;;;25.93;36.06;92645.22;5040321;28;7251;-60
2022/04/23 08:56:24;;;;;;;;;;;;;;;25.92;36.06;92657.53;5039669;28;9952;-59
2022/04/23 08:58:52;;;;;;;;;;;;;;;25.91;36.41;92655.31;5039935;28;9128;-59
2022/04/23 09:01:22;;;;;;;;;;;;;;;25.91;36.36;92666.34;5040032;28;7190;-59
2022/04/23 09:03:56;;;;;;;;;;;;;;;25.90;35.74;92660.09;5042555;28;7129;-60
2022/04/23 09:06:55;;;;;;;;;;;;;;;25.91;35.86;92655.31;5043000;28;9130;-60
2022/04/23 09:09:23;;;;;;;;;;;;;;;25.90;35.52;92654.59;4980790;28;7020;-60
2022/04/23 09:11:57;;;;;;;;;;;;;;;25.91;35.44;92658.06;4981229;28;9527;-60
2022/04/23 09:14:25;;;;;;;;;;;;;;;25.89;35.57;92657.91;4970193;28;8462;-60
2022/04/23 09:25:31;;;;;;;;;;;;;;;25.85;35.78;92663.78;4981166;28;7258;-60
2022/04/23 09:28:15;;;;;;;;;;;;;;;25.83;35.97;92660.84;4958611;28;8777;-60
2022/04/23 09:30:44;;;;;;;;;;;;;;;25.82;35.66;92659.38;4980602;28;7273;-60
2022/04/23 09:33:56;;;;;;;;;;;;;;;25.83;36.11;92674.63;4988394;28;7322;-60
2022/04/23 09:36:46;;;;;;;;;;;;;;;25.86;36.42;92676.25;4962919;28;7045;-60
2022/04/23 09:39:12;;;;;;;;;;;;;;;25.85;35.91;92668.56;4971986;28;8996;-60
2022/04/23 09:41:38;;;;;;;;;;;;;;;25.88;36.34;92667.47;4967876;28;7205;-60
2022/04/23 09:44:08;;;;;;;;;;;;;;;25.86;36.58;92661.78;4981592;28;7159;-60
2022/04/23 09:46:58;;;;;;;;;;;;;;;25.86;35.71;92672.78;5049034;28;9185;-60
2022/04/23 09:49:35;;;;;;;;;;;;;;;25.85;35.84;92668.56;5055979;28;9029;-60
2022/04/23 09:52:07;;;;;;;;;;;;;;;25.86;35.57;92670.75;5038981;28;8811;-60
2022/04/23 09:54:35;;;;;;;;;;;;;;;25.86;35.62;92681.06;5040814;28;7461;-60
2022/04/23 09:57:01;;;;;;;;;;;;;;;25.86;36.12;92670.03;5038346;28;9482;-60
2022/04/23 09:59:27;;;;;;;;;;;;;;;25.86;36.67;92681.06;5033351;28;9146;-60
2022/04/23 10:02:03;;;;;;;;;;;;;;;25.86;35.70;92681.78;5041745;28;9478;-60
2022/04/23 10:04:31;;;;;;;;;;;;;;;25.89;36.28;92685.44;5042315;28;7221;-61
2022/04/23 10:07:12;;;;;;;;;;;;;;;25.87;35.37;92677.00;5051961;28;9528;-60
2022/04/23 10:09:44;;;;;;;;;;;;;;;25.81;35.80;92684.72;5039226;28;9006;-60
2022/04/23 10:12:19;;;;;;;;;;;;;;;25.82;36.25;92686.19;5050256;28;7069;-60
2022/04/23 10:15:00;;;;;;;;;;;;;;;25.82;36.16;92684.16;5041918;28;7507;-60
2022/04/23 10:17:28;;;;;;;;;;;;;;;25.83;36.41;92682.16;5042700;28;9579;-60
2022/04/23 10:19:59;;;;;;;;;;;;;;;25.79;36.52;92685.28;5039812;28;9148;-60
2022/04/23 10:23:09;;;;;;;;;;;;;;;25.81;36.42;92679.22;5046573;28;7271;-60
2022/04/23 10:26:13;;;;;;;;;;;;;;;25.77;37.47;92693.38;5041958;28;9433;-60
2022/04/23 10:28:45;;;;;;;;;;;;;;;25.78;37.32;92686.56;5041407;28;7301;-60
2022/04/23 10:31:19;;;;;;;;;;;;;;;25.78;37.07;92688.56;5034861;28;7240;-60
2022/04/23 10:33:51;;;;;;;;;;;;;;;25.80;36.76;92692.25;5037854;28;7227;-60
2022/04/23 10:36:23;;;;;;;;;;;;;;;25.80;37.00;92695.00;5053449;28;7855;-60
2022/04/23 10:39:21;;;;;;;;;;;;;;;25.80;36.59;92686.75;5038507;28;7329;-59
2022/04/23 10:41:53;;;;;;;;;;;;;;;25.82;36.72;92692.44;5026117;28;9056;-60
2022/04/23 10:44:24;;;;;;;;;;;;;;;25.82;36.43;92686.91;5030520;28;7367;-60
2022/04/23 10:46:51;;;;;;;;;;;;;;;25.81;36.65;92685.47;5042024;28;7008;-60
2022/04/23 10:49:25;;;;;;;;;;;;;;;25.81;36.33;92696.47;5046638;28;6988;-60
2022/04/23 10:51:56;;;;;;;;;;;;;;;25.87;36.89;92696.28;5045283;28;9122;-60
2022/04/23 10:54:42;;;;;;;;;;;;;;;25.89;36.93;92691.69;5042091;28;6960;-60
2022/04/23 10:57:10;;;;;;;;;;;;;;;25.87;36.27;92693.53;5029793;28;7331;-60
2022/04/23 10:59:48;;;;;;;;;;;;;;;25.85;36.72;92691.34;5048872;28;8744;-60
2022/04/23 11:02:29;;;;;;;;;;;;;;;25.86;36.55;92687.28;5031519;28;7146;-61
2022/04/23 11:13:31;;;;;;;;;;;;;;;25.86;36.43;92686.56;5039899;28;6888;-60
2022/04/23 11:16:11;;;;;;;;;;;;;;;25.86;37.30;92676.25;5030786;28;9204;-60
2022/04/23 11:18:40;;;;;;;;;;;;;;;25.89;36.86;92677.91;5042932;28;9072;-60
2022/04/23 11:21:26;;;;;;;;;;;;;;;25.91;37.17;92667.09;5028250;28;9216;-60
2022/04/23 11:23:54;;;;;;;;;;;;;;;25.92;36.62;92671.31;5026911;28;7137;-61
2022/04/23 11:26:44;;;;;;;;;;;;;;;25.93;36.68;92672.03;5033267;28;7153;-61
2022/04/23 11:29:11;;;;;;;;;;;;;;;25.94;36.75;92665.97;5042391;28;7133;-61
2022/04/23 11:31:37;;;;;;;;;;;;;;;25.95;37.06;92656.41;5037512;28;7279;-60
2022/04/23 11:34:07;;;;;;;;;;;;;;;25.93;37.46;92659.00;5036628;28;8385;-60
2022/04/23 11:36:37;;;;;;;;;;;;;;;25.95;36.92;92656.41;5028304;28;9025;-61
2022/04/23 11:39:09;;;;;;;;;;;;;;;25.98;36.98;92654.56;5035811;28;9287;-60
2022/04/23 11:41:58;;;;;;;;;;;;;;;25.95;36.77;92650.91;5053642;28;9840;-61
2022/04/23 11:47:29;;;;;;;;;;;;;;;25.96;36.58;92657.16;4957430;28;8399;-61
2022/04/23 11:50:09;;;;;;;;;;;;;;;25.97;37.76;92651.09;4946765;28;7208;-61
2022/04/23 11:52:35;;;;;;;;;;;;;;;25.99;37.54;92656.78;4962304;28;9446;-61
2022/04/23 11:55:01;;;;;;;;;;;;;;;25.97;37.60;92642.81;4949661;28;9458;-60
2022/04/23 11:57:30;;;;;;;;;;;;;;;25.99;37.35;92645.03;4948501;28;9310;-60
2022/04/23 12:00:00;;;;;;;;;;;;;;;25.99;37.66;92637.50;4943177;28;9135;-59
2022/04/23 12:02:32;;;;;;;;;;;;;;;25.99;37.09;92634.72;4946618;28;7291;-60
2022/04/23 12:05:05;;;;;;;;;;;;;;;26.00;37.50;92636.22;4947715;28;7567;-60
2022/04/23 12:07:33;;;;;;;;;;;;;;;26.01;36.94;92640.41;4945053;28;7304;-62
2022/04/23 12:10:04;;;;;;;;;;;;;;;26.01;36.61;92637.66;4948887;28;9077;-62
2022/04/23 12:12:48;;;;;;;;;;;;;;;26.04;37.33;92631.06;4951573;28;9345;-61
2022/04/23 12:15:21;;;;;;;;;;;;;;;26.07;36.10;92626.47;4962004;28;7268;-61
2022/04/23 12:17:47;;;;;;;;;;;;;;;26.06;36.85;92631.22;4946516;28;7264;-61
2022/04/23 12:20:23;;;;;;;;;;;;;;;26.05;36.20;92627.03;4966891;28;9080;-62
2022/04/23 12:23:00;;;;;;;;;;;;;;;26.05;36.09;92620.78;5050024;28;7355;-61
2022/04/23 12:25:28;;;;;;;;;;;;;;;26.01;36.41;92621.13;5036929;28;9567;-61
2022/04/23 12:27:59;;;;;;;;;;;;;;;25.99;36.78;92623.00;5032879;28;7485;-61
2022/04/23 12:42:10;;;;;;;;;;;;;;;25.99;36.25;92614.72;5033287;28;7933;-60
2022/04/23 12:44:37;;;;;;;;;;;;;;;25.99;36.17;92609.94;5039829;28;7261;-60
2022/04/23 12:47:06;;;;;;;;;;;;;;;26.00;36.17;92608.66;5027491;28;9091;-60
2022/04/23 12:49:54;;;;;;;;;;;;;;;26.03;36.78;92598.56;5040249;28;7005;-60
2022/04/23 12:52:26;;;;;;;;;;;;;;;26.04;37.07;92594.50;5028030;28;7940;-60
2022/04/23 12:55:12;;;;;;;;;;;;;;;26.04;37.01;92589.72;5052061;28;7231;-60
2022/04/23 12:57:51;;;;;;;;;;;;;;;26.03;36.32;92585.50;5031813;28;8057;-60
2022/04/23 13:00:23;;;;;;;;;;;;;;;26.03;37.00;92579.97;5032352;28;7565;-60
2022/04/23 13:02:54;;;;;;;;;;;;;;;26.06;36.20;92573.38;5035107;28;9339;-60
2022/04/23 13:05:27;;;;;;;;;;;;;;;26.07;35.88;92569.34;5031550;28;9349;-61
2022/04/23 13:10:39;;;;;;;;;;;;;;;26.07;36.83;92563.81;5033965;28;9048;-60
2022/04/23 13:13:09;;;;;;;;;;;;;;;26.07;37.21;92563.81;5035154;28;7235;-59
2022/04/23 13:15:36;;;;;;;;;;;;;;;26.08;36.52;92568.06;5027804;28;8932;-60
2022/04/23 13:18:04;;;;;;;;;;;;;;;26.09;36.76;92560.53;5030378;28;9073;-59
2022/04/23 13:20:40;;;;;;;;;;;;;;;26.10;36.37;92562.72;5030601;28;7211;-60
2022/04/23 13:23:13;;;;;;;;;;;;;;;26.09;36.82;92558.53;5038833;28;7022;-60
2022/04/23 13:25:49;;;;;;;;;;;;;;;26.09;36.72;92566.78;5030083;28;6959;-59
2022/04/23 13:28:16;;;;;;;;;;;;;;;26.10;36.76;92564.75;5045382;28;9209;-60
2022/04/23 13:30:44;;;;;;;;;;;;;;;26.04;37.02;92558.69;5037865;28;6944;-59
2022/04/23 13:33:10;;;;;;;;;;;;;;;26.07;36.45;92552.81;5047742;28;7151;-61
2022/04/23 13:35:47;;;;;;;;;;;;;;;26.07;36.96;92552.81;5045577;28;7429;-59
2022/04/23 13:38:19;;;;;;;;;;;;;;;26.07;36.20;92547.28;5047672;28;7304;-59
2022/04/23 13:40:48;;;;;;;;;;;;;;;26.04;36.37;92548.41;5048244;28;9447;-60
2022/04/23 13:43:17;;;;;;;;;;;;;;;26.03;37.21;92546.94;5046821;28;7227;-60
2022/04/23 13:45:44;;;;;;;;;;;;;;;26.03;36.48;92537.94;5037321;28;7088;-61
2022/04/23 13:48:18;;;;;;;;;;;;;;;26.04;36.07;92537.38;5048138;28;7224;-61
2022/04/23 13:50:48;;;;;;;;;;;;;;;26.04;36.58;92533.88;5048829;28;7255;-60
2022/04/23 13:53:16;;;;;;;;;;;;;;;26.02;36.71;92528.94;5047014;28;7185;-60
2022/04/23 13:55:42;;;;;;;;;;;;;;;25.98;36.66;92517.59;5033638;28;7441;-61
2022/04/23 13:58:08;;;;;;;;;;;;;;;26.02;36.71;92528.94;5042398;28;8010;-61
2022/04/23 14:00:34;;;;;;;;;;;;;;;26.03;37.48;92519.38;5043849;28;9334;-61
2022/04/23 14:11:17;;;;;;;;;;;;;;;26.05;37.57;92521.59;5034214;28;8762;-60
2022/04/23 14:13:44;;;;;;;;;;;;;;;26.04;36.77;92526.38;5033371;28;8935;-61
2022/04/23 14:16:10;;;;;;;;;;;;;;;26.04;37.26;92526.38;5042810;28;7257;-61
2022/04/23 14:18:38;;;;;;;;;;;;;;;26.04;37.45;92512.59;5040072;28;7062;-61